Time;durP1;ratioP1;P1;durP2;ratioP2;P2;SDS_P1;SDS_P2;PMS_P1;PMS_P2;Temp;Humidity;BMP_temperature;BMP_pressure;BME280_temperature;BME280_humidity;BME280_pressure;Samples;Min_cycle;Max_cycle;Signal;HPM_P1;HPM_P2
2021/12/27 00:00:09;;;;;;;14.80;7.97;;;;;;;;;;7390895;19;20002;-77
2021/12/27 00:02:35;;;;;;;12.30;7.80;;;;;;;;;;7391841;19;19995;-76
2021/12/27 00:05:00;;;;;;;16.05;8.07;;;;;;;;;;7391640;19;20093;-77
2021/12/27 00:07:25;;;;;;;16.35;9.90;;;;;;;;;;7391228;19;20347;-77
2021/12/27 00:09:51;;;;;;;16.90;8.38;;;;;;;;;;7393130;19;20487;-77
2021/12/27 00:12:16;;;;;;;11.98;7.15;;;;;;;;;;7395236;19;20001;-77
2021/12/27 00:14:42;;;;;;;13.25;7.20;;;;;;;;;;7391102;19;20019;-77
2021/12/27 00:17:07;;;;;;;12.13;7.32;;;;;;;;;;7391332;19;19994;-76
2021/12/27 00:19:32;;;;;;;14.05;8.30;;;;;;;;;;7390272;19;20363;-77
2021/12/27 00:21:58;;;;;;;14.55;8.50;;;;;;;;;;7391211;19;20516;-77
2021/12/27 00:24:23;;;;;;;13.07;7.70;;;;;;;;;;7390338;19;20003;-77
2021/12/27 00:26:48;;;;;;;13.90;7.50;;;;;;;;;;7389530;19;20466;-76
2021/12/27 00:29:15;;;;;;;11.02;6.88;;;;;;;;;;7389944;19;19999;-76
2021/12/27 00:31:41;;;;;;;12.10;7.20;;;;;;;;;;7391031;19;20028;-77
2021/12/27 00:34:06;;;;;;;14.20;7.15;;;;;;;;;;7388903;19;20487;-77
2021/12/27 00:36:31;;;;;;;10.98;7.50;;;;;;;;;;7389297;19;20002;-77
2021/12/27 00:38:57;;;;;;;13.95;7.90;;;;;;;;;;7389164;19;20713;-77
2021/12/27 00:41:22;;;;;;;13.32;8.13;;;;;;;;;;7390253;19;20010;-78
2021/12/27 00:43:47;;;;;;;12.98;8.20;;;;;;;;;;7390118;19;20031;-77
2021/12/27 00:46:12;;;;;;;14.70;8.35;;;;;;;;;;7389941;19;20081;-77
2021/12/27 00:48:38;;;;;;;13.52;7.97;;;;;;;;;;7389265;19;20456;-77
2021/12/27 00:51:03;;;;;;;13.27;7.38;;;;;;;;;;7390402;19;20003;-77
2021/12/27 00:53:29;;;;;;;14.82;8.20;;;;;;;;;;7389631;19;20025;-77
2021/12/27 00:55:54;;;;;;;11.82;7.47;;;;;;;;;;7389373;19;20002;-77
2021/12/27 00:58:20;;;;;;;13.55;8.23;;;;;;;;;;7390067;19;20003;-77
2021/12/27 01:00:45;;;;;;;15.35;8.00;;;;;;;;;;7392703;19;20489;-76
2021/12/27 01:03:10;;;;;;;11.65;6.97;;;;;;;;;;7389616;19;20521;-78
2021/12/27 01:05:36;;;;;;;13.07;7.85;;;;;;;;;;7388975;19;20023;-77
2021/12/27 01:08:01;;;;;;;12.23;7.15;;;;;;;;;;7388862;19;20076;-77
2021/12/27 01:13:21;;;;;;;13.15;7.40;;;;;;;;;;7389984;19;20009;-77
2021/12/27 01:15:51;;;;;;;16.15;8.15;;;;;;;;;;7389339;19;20457;-77
2021/12/27 01:18:18;;;;;;;13.65;8.10;;;;;;;;;;7388651;19;20002;-77
2021/12/27 01:20:44;;;;;;;14.95;8.23;;;;;;;;;;7389366;19;20024;-76
2021/12/27 01:23:10;;;;;;;12.10;7.95;;;;;;;;;;7389016;19;20007;-77
2021/12/27 01:25:36;;;;;;;14.43;8.55;;;;;;;;;;7388718;19;20412;-77
2021/12/27 01:28:02;;;;;;;15.07;9.07;;;;;;;;;;7389222;19;20027;-77
2021/12/27 01:30:28;;;;;;;16.63;8.23;;;;;;;;;;7388436;19;20480;-77
2021/12/27 01:32:57;;;;;;;17.92;7.68;;;;;;;;;;7389212;19;20002;-77
2021/12/27 01:35:23;;;;;;;11.77;7.50;;;;;;;;;;7388410;19;20010;-76
2021/12/27 01:37:51;;;;;;;11.52;7.57;;;;;;;;;;7387283;19;20439;-76
2021/12/27 01:40:18;;;;;;;13.48;7.82;;;;;;;;;;7387569;19;20007;-77
2021/12/27 01:43:06;;;;;;;13.18;7.85;;;;;;;;;;7388804;19;20425;-77
2021/12/27 01:45:31;;;;;;;10.93;7.15;;;;;;;;;;7388974;19;20003;-76
2021/12/27 01:47:57;;;;;;;14.13;7.30;;;;;;;;;;7388948;19;19998;-75
2021/12/27 01:50:22;;;;;;;14.40;7.63;;;;;;;;;;7391896;19;20085;-77
2021/12/27 01:52:48;;;;;;;13.63;7.43;;;;;;;;;;7393039;19;19995;-77
2021/12/27 01:55:13;;;;;;;13.05;7.47;;;;;;;;;;7394852;19;20009;-76
2021/12/27 01:57:39;;;;;;;11.45;7.10;;;;;;;;;;7393147;19;20007;-76
2021/12/27 02:00:05;;;;;;;14.57;8.18;;;;;;;;;;7395397;19;20101;-76
2021/12/27 02:02:31;;;;;;;16.70;7.78;;;;;;;;;;7395562;19;20311;-76
2021/12/27 02:04:56;;;;;;;12.75;7.72;;;;;;;;;;7395903;19;20066;-76
2021/12/27 02:07:21;;;;;;;13.00;8.20;;;;;;;;;;7393362;19;20326;-76
2021/12/27 02:09:58;;;;;;;12.13;6.82;;;;;;;;;;7394795;19;20482;-76
2021/12/27 02:12:23;;;;;;;11.45;7.60;;;;;;;;;;7395443;19;19994;-76
2021/12/27 02:14:49;;;;;;;13.82;7.82;;;;;;;;;;7395235;19;20023;-76
2021/12/27 02:17:18;;;;;;;12.80;7.68;;;;;;;;;;7392448;19;20006;-77
2021/12/27 02:19:48;;;;;;;13.95;7.97;;;;;;;;;;7396100;19;20006;-76
2021/12/27 02:22:13;;;;;;;12.20;7.85;;;;;;;;;;7397902;19;20017;-76
2021/12/27 02:24:40;;;;;;;13.93;7.95;;;;;;;;;;7394067;19;20003;-77
2021/12/27 02:27:06;;;;;;;13.18;8.43;;;;;;;;;;7392351;19;20450;-76
2021/12/27 02:29:31;;;;;;;15.10;8.55;;;;;;;;;;7393985;19;19991;-76
2021/12/27 02:31:57;;;;;;;11.43;7.20;;;;;;;;;;7394437;19;20017;-76
2021/12/27 02:34:22;;;;;;;13.63;7.63;;;;;;;;;;7394356;19;20050;-76
2021/12/27 02:36:48;;;;;;;14.05;7.85;;;;;;;;;;7392112;19;20003;-76
2021/12/27 02:39:14;;;;;;;13.77;7.72;;;;;;;;;;7396832;19;19991;-76
2021/12/27 02:41:39;;;;;;;13.40;7.88;;;;;;;;;;7398781;19;20114;-76
2021/12/27 02:44:05;;;;;;;12.00;7.53;;;;;;;;;;7393944;19;19994;-76
2021/12/27 02:46:30;;;;;;;11.38;6.60;;;;;;;;;;7392441;19;19995;-76
2021/12/27 02:48:55;;;;;;;13.80;7.70;;;;;;;;;;7393451;19;19999;-76
2021/12/27 02:51:20;;;;;;;12.65;7.55;;;;;;;;;;7394285;19;20070;-76
2021/12/27 02:53:47;;;;;;;15.68;7.25;;;;;;;;;;7394117;19;20003;-76
2021/12/27 02:56:13;;;;;;;15.48;7.75;;;;;;;;;;7392593;19;20334;-76
2021/12/27 02:58:38;;;;;;;15.55;9.07;;;;;;;;;;7393264;19;19994;-76
2021/12/27 03:01:11;;;;;;;14.73;8.25;;;;;;;;;;7393562;19;19999;-77
2021/12/27 03:03:36;;;;;;;11.98;7.45;;;;;;;;;;7393508;19;19998;-77
2021/12/27 03:06:02;;;;;;;12.30;7.18;;;;;;;;;;7392528;19;20058;-77
2021/12/27 03:08:28;;;;;;;21.15;7.97;;;;;;;;;;7392338;19;19998;-76
2021/12/27 03:10:57;;;;;;;12.32;7.60;;;;;;;;;;7393375;19;20002;-76
2021/12/27 03:13:27;;;;;;;14.05;7.90;;;;;;;;;;7393360;19;20344;-77
2021/12/27 03:16:01;;;;;;;13.88;7.35;;;;;;;;;;7392581;19;19994;-76
2021/12/27 03:18:27;;;;;;;17.58;8.77;;;;;;;;;;7392547;19;20011;-77
2021/12/27 03:20:53;;;;;;;18.77;9.60;;;;;;;;;;7393375;19;20002;-77
2021/12/27 03:23:19;;;;;;;11.35;7.05;;;;;;;;;;7390851;19;20612;-76
2021/12/27 03:25:44;;;;;;;11.25;6.78;;;;;;;;;;7392212;19;20002;-77
2021/12/27 03:28:11;;;;;;;13.75;7.78;;;;;;;;;;7393544;19;20006;-77
2021/12/27 03:30:37;;;;;;;14.57;8.32;;;;;;;;;;7396859;19;20058;-77
2021/12/27 03:33:04;;;;;;;13.98;8.50;;;;;;;;;;7392576;19;19999;-76
2021/12/27 03:35:35;;;;;;;14.93;8.48;;;;;;;;;;7392211;19;20001;-76
2021/12/27 03:38:03;;;;;;;11.68;7.15;;;;;;;;;;7390233;19;20024;-77
2021/12/27 03:40:29;;;;;;;15.38;7.93;;;;;;;;;;7392125;19;20498;-76
2021/12/27 03:42:55;;;;;;;13.07;7.80;;;;;;;;;;7392461;19;19999;-76
2021/12/27 03:45:24;;;;;;;13.10;7.80;;;;;;;;;;7391616;19;20003;-76
2021/12/27 03:47:50;;;;;;;13.40;8.30;;;;;;;;;;7392028;19;20397;-76
2021/12/27 03:50:16;;;;;;;27.13;15.63;;;;;;;;;;7392521;19;20010;-76
2021/12/27 03:52:42;;;;;;;16.20;9.07;;;;;;;;;;7392197;19;19995;-76
2021/12/27 03:55:09;;;;;;;16.35;9.32;;;;;;;;;;7391033;19;20461;-76
2021/12/27 03:57:36;;;;;;;13.30;7.07;;;;;;;;;;7390378;19;20006;-76
2021/12/27 04:02:45;;;;;;;15.23;7.38;;;;;;;;;;7392137;19;20498;-77
2021/12/27 04:05:11;;;;;;;11.27;6.78;;;;;;;;;;7391450;19;20066;-77
2021/12/27 04:07:38;;;;;;;13.02;7.40;;;;;;;;;;7391905;19;20006;-76
2021/12/27 04:10:08;;;;;;;13.73;7.68;;;;;;;;;;7390685;19;19995;-77
2021/12/27 04:12:34;;;;;;;14.90;8.18;;;;;;;;;;7391017;19;20005;-76
2021/12/27 04:15:01;;;;;;;13.60;7.85;;;;;;;;;;7391626;19;20319;-76
2021/12/27 04:17:26;;;;;;;9.18;6.25;;;;;;;;;;7388247;19;19995;-76
2021/12/27 04:19:51;;;;;;;11.75;7.38;;;;;;;;;;7395184;19;20030;-76
2021/12/27 04:22:17;;;;;;;9.65;6.65;;;;;;;;;;7394462;19;19994;-76
2021/12/27 04:24:42;;;;;;;11.07;6.57;;;;;;;;;;7391339;19;19991;-76
2021/12/27 04:27:07;;;;;;;14.93;7.72;;;;;;;;;;7389073;19;20048;-77
2021/12/27 04:29:33;;;;;;;14.00;7.80;;;;;;;;;;7390928;19;20001;-77
2021/12/27 04:31:58;;;;;;;13.90;8.02;;;;;;;;;;7390648;19;20453;-77
2021/12/27 04:34:23;;;;;;;13.25;7.22;;;;;;;;;;7390454;19;19995;-76
2021/12/27 04:36:48;;;;;;;12.05;6.97;;;;;;;;;;7389162;19;19991;-76
2021/12/27 04:39:14;;;;;;;14.93;7.75;;;;;;;;;;7389319;19;20019;-77
2021/12/27 04:41:39;;;;;;;13.05;6.97;;;;;;;;;;7390086;19;20351;-76
2021/12/27 04:44:05;;;;;;;13.23;7.30;;;;;;;;;;7389882;19;19994;-76
2021/12/27 04:46:30;;;;;;;11.00;7.05;;;;;;;;;;7388894;19;20016;-76
2021/12/27 04:48:55;;;;;;;14.27;8.02;;;;;;;;;;7389565;19;20101;-77
2021/12/27 04:51:21;;;;;;;13.55;7.03;;;;;;;;;;7390417;19;19995;-76
2021/12/27 04:53:49;;;;;;;15.15;8.02;;;;;;;;;;7389414;19;19994;-76
2021/12/27 04:56:14;;;;;;;13.07;7.80;;;;;;;;;;7389201;19;20023;-77
2021/12/27 04:58:40;;;;;;;13.93;8.45;;;;;;;;;;7389036;19;20061;-76
2021/12/27 05:01:05;;;;;;;12.88;7.47;;;;;;;;;;7389922;19;20033;-75
2021/12/27 05:03:30;;;;;;;14.73;7.78;;;;;;;;;;7389562;19;20012;-76
2021/12/27 05:05:55;;;;;;;14.20;8.63;;;;;;;;;;7389328;19;19994;-77
2021/12/27 05:08:21;;;;;;;13.50;7.95;;;;;;;;;;7390201;19;20027;-76
2021/12/27 05:10:47;;;;;;;14.13;7.43;;;;;;;;;;7394037;19;20002;-76
2021/12/27 05:13:12;;;;;;;15.23;8.65;;;;;;;;;;7389137;19;19994;-76
2021/12/27 05:15:38;;;;;;;11.27;6.93;;;;;;;;;;7388806;19;20479;-76
2021/12/27 05:18:03;;;;;;;11.85;7.22;;;;;;;;;;7387661;19;20046;-77
2021/12/27 05:20:28;;;;;;;12.80;7.72;;;;;;;;;;7389023;19;20403;-76
2021/12/27 05:22:54;;;;;;;14.27;7.90;;;;;;;;;;7389576;19;20437;-77
2021/12/27 05:25:19;;;;;;;13.50;7.43;;;;;;;;;;7388106;19;19991;-77
2021/12/27 05:27:45;;;;;;;13.85;9.05;;;;;;;;;;7388905;19;19998;-76
2021/12/27 05:30:12;;;;;;;14.98;8.68;;;;;;;;;;7395944;19;19998;-76
2021/12/27 05:32:40;;;;;;;16.88;9.18;;;;;;;;;;7396579;19;20002;-76
2021/12/27 05:35:07;;;;;;;14.77;8.48;;;;;;;;;;7396370;19;20034;-77
2021/12/27 05:37:32;;;;;;;12.50;7.10;;;;;;;;;;7394253;19;20098;-75
2021/12/27 05:40:04;;;;;;;14.20;7.88;;;;;;;;;;7395104;19;20113;-76
2021/12/27 05:42:30;;;;;;;14.30;8.15;;;;;;;;;;7396358;19;20079;-77
2021/12/27 05:44:56;;;;;;;14.10;7.80;;;;;;;;;;7395871;19;20006;-76
2021/12/27 05:47:21;;;;;;;15.65;8.13;;;;;;;;;;7393539;19;20002;-77
2021/12/27 05:49:46;;;;;;;15.20;8.40;;;;;;;;;;7395418;19;20458;-76
2021/12/27 05:52:12;;;;;;;14.68;8.50;;;;;;;;;;7396006;19;19986;-76
2021/12/27 05:54:37;;;;;;;14.70;7.43;;;;;;;;;;7395275;19;20433;-76
2021/12/27 05:57:03;;;;;;;12.82;7.22;;;;;;;;;;7392974;19;20458;-76
2021/12/27 05:59:28;;;;;;;15.05;7.95;;;;;;;;;;7399571;19;20002;-77
2021/12/27 06:01:53;;;;;;;14.88;7.47;;;;;;;;;;7395760;19;20007;-76
2021/12/27 06:04:18;;;;;;;11.75;6.88;;;;;;;;;;7395150;19;19990;-76
2021/12/27 06:06:44;;;;;;;12.60;6.97;;;;;;;;;;7393725;19;20003;-77
2021/12/27 06:09:09;;;;;;;12.52;7.50;;;;;;;;;;7395040;19;20034;-76
2021/12/27 06:11:34;;;;;;;12.82;7.13;;;;;;;;;;7395228;19;20019;-77
2021/12/27 06:13:59;;;;;;;14.02;6.60;;;;;;;;;;7394934;19;20333;-77
2021/12/27 06:16:25;;;;;;;14.07;8.20;;;;;;;;;;7396234;19;19998;-77
2021/12/27 06:18:50;;;;;;;12.55;6.63;;;;;;;;;;7394258;19;19998;-77
2021/12/27 06:21:16;;;;;;;11.98;7.00;;;;;;;;;;7393267;19;20458;-76
2021/12/27 06:23:41;;;;;;;10.90;6.38;;;;;;;;;;7394600;19;19991;-77
2021/12/27 06:26:07;;;;;;;13.68;7.43;;;;;;;;;;7393402;19;20066;-77
2021/12/27 06:28:34;;;;;;;18.10;9.30;;;;;;;;;;7393591;19;20027;-77
2021/12/27 06:31:00;;;;;;;13.77;8.25;;;;;;;;;;7394693;19;20001;-77
2021/12/27 06:33:25;;;;;;;13.15;7.22;;;;;;;;;;7394354;19;20485;-77
2021/12/27 06:35:51;;;;;;;14.23;7.60;;;;;;;;;;7393612;19;19995;-77
2021/12/27 06:38:16;;;;;;;13.18;8.07;;;;;;;;;;7393019;19;19995;-76
2021/12/27 06:40:41;;;;;;;12.70;7.75;;;;;;;;;;7393278;19;19995;-77
2021/12/27 06:43:07;;;;;;;13.25;7.03;;;;;;;;;;7393923;19;20001;-77
2021/12/27 06:45:32;;;;;;;12.63;7.78;;;;;;;;;;7393649;19;20387;-76
2021/12/27 06:47:57;;;;;;;15.00;7.95;;;;;;;;;;7396117;19;19987;-77
2021/12/27 06:50:23;;;;;;;12.52;7.65;;;;;;;;;;7397231;19;19994;-75
2021/12/27 06:52:49;;;;;;;16.08;8.15;;;;;;;;;;7393961;19;19994;-76
2021/12/27 06:55:15;;;;;;;13.68;8.40;;;;;;;;;;7392963;19;19991;-76
2021/12/27 06:57:40;;;;;;;11.82;7.50;;;;;;;;;;7392055;19;20303;-76
2021/12/27 07:00:09;;;;;;;12.00;7.20;;;;;;;;;;7393089;19;19991;-76
2021/12/27 07:02:34;;;;;;;13.25;8.27;;;;;;;;;;7393771;19;20391;-76
2021/12/27 07:05:00;;;;;;;14.32;7.68;;;;;;;;;;7393643;19;20002;-77
2021/12/27 07:07:25;;;;;;;14.88;8.65;;;;;;;;;;7391167;19;20454;-76
2021/12/27 07:09:51;;;;;;;11.73;7.10;;;;;;;;;;7392564;19;20445;-76
2021/12/27 07:12:16;;;;;;;14.85;8.27;;;;;;;;;;7393402;19;20007;-77
2021/12/27 07:14:42;;;;;;;12.52;7.07;;;;;;;;;;7392998;19;20353;-76
2021/12/27 07:17:07;;;;;;;15.13;8.05;;;;;;;;;;7391733;19;19999;-76
2021/12/27 07:19:33;;;;;;;13.32;7.28;;;;;;;;;;7392343;19;20298;-76
2021/12/27 07:21:58;;;;;;;15.98;8.68;;;;;;;;;;7393419;19;19994;-76
2021/12/27 07:24:23;;;;;;;10.57;6.90;;;;;;;;;;7392074;19;20016;-76
2021/12/27 07:26:49;;;;;;;14.38;7.80;;;;;;;;;;7391418;19;19994;-76
2021/12/27 07:29:14;;;;;;;13.30;7.97;;;;;;;;;;7392178;19;19995;-76
2021/12/27 07:31:39;;;;;;;15.00;7.95;;;;;;;;;;7391672;19;20003;-76
2021/12/27 07:34:05;;;;;;;13.80;7.93;;;;;;;;;;7392440;19;20003;-77
2021/12/27 07:36:31;;;;;;;14.82;7.53;;;;;;;;;;7391349;19;20003;-76
2021/12/27 07:38:57;;;;;;;14.38;7.95;;;;;;;;;;7393735;19;20006;-77
2021/12/27 07:41:23;;;;;;;15.25;8.63;;;;;;;;;;7392418;19;20003;-76
2021/12/27 07:43:49;;;;;;;14.73;8.52;;;;;;;;;;7392146;19;19994;-76
2021/12/27 07:46:14;;;;;;;18.83;9.45;;;;;;;;;;7391185;19;20354;-76
2021/12/27 07:48:39;;;;;;;18.13;9.15;;;;;;;;;;7391471;19;20395;-77
2021/12/27 07:51:05;;;;;;;15.30;7.82;;;;;;;;;;7390156;19;20066;-76
2021/12/27 07:53:30;;;;;;;15.30;7.57;;;;;;;;;;7391433;19;20323;-77
2021/12/27 07:55:55;;;;;;;13.65;7.57;;;;;;;;;;7391646;19;20325;-76
2021/12/27 07:58:20;;;;;;;12.65;7.00;;;;;;;;;;7391781;19;20007;-77
2021/12/27 08:00:50;;;;;;;14.52;8.40;;;;;;;;;;7391810;19;20292;-76
2021/12/27 08:03:19;;;;;;;18.40;8.65;;;;;;;;;;7391931;19;20019;-77
2021/12/27 08:05:44;;;;;;;20.13;9.77;;;;;;;;;;7390863;19;20466;-77
2021/12/27 08:08:09;;;;;;;20.17;9.88;;;;;;;;;;7390592;19;20065;-76
2021/12/27 08:10:35;;;;;;;15.05;8.32;;;;;;;;;;7391470;19;20022;-76
2021/12/27 08:13:02;;;;;;;18.27;8.88;;;;;;;;;;7392522;19;19994;-76
2021/12/27 08:15:27;;;;;;;15.63;8.60;;;;;;;;;;7390875;19;19998;-78
2021/12/27 08:17:53;;;;;;;18.38;8.82;;;;;;;;;;7389653;19;20348;-76
2021/12/27 08:20:18;;;;;;;16.55;8.43;;;;;;;;;;7390484;19;20466;-77
2021/12/27 08:22:43;;;;;;;19.45;7.80;;;;;;;;;;7390795;19;19997;-77
2021/12/27 08:25:09;;;;;;;21.95;9.45;;;;;;;;;;7389769;19;19995;-77
2021/12/27 08:27:36;;;;;;;16.85;7.72;;;;;;;;;;7393725;19;20799;-77
2021/12/27 08:30:04;;;;;;;23.88;9.15;;;;;;;;;;7393334;19;20083;-76
2021/12/27 08:32:31;;;;;;;30.63;8.90;;;;;;;;;;7391073;19;20002;-76
2021/12/27 08:34:57;;;;;;;45.10;9.52;;;;;;;;;;7390532;19;19991;-76
2021/12/27 08:37:22;;;;;;;36.83;9.05;;;;;;;;;;7388360;19;20335;-76
2021/12/27 08:39:47;;;;;;;34.20;7.90;;;;;;;;;;7389008;19;19991;-76
2021/12/27 08:42:13;;;;;;;35.50;9.07;;;;;;;;;;7390512;19;20012;-76
2021/12/27 08:44:38;;;;;;;43.15;8.43;;;;;;;;;;7390154;19;19998;-76
2021/12/27 08:47:04;;;;;;;20.08;9.32;;;;;;;;;;7389161;19;20005;-76
2021/12/27 08:49:29;;;;;;;25.85;9.60;;;;;;;;;;7388180;19;19994;-76
2021/12/27 08:51:55;;;;;;;23.15;9.65;;;;;;;;;;7390206;19;20077;-77
2021/12/27 08:54:20;;;;;;;19.73;8.48;;;;;;;;;;7389332;19;19991;-76
2021/12/27 08:56:46;;;;;;;14.75;9.35;;;;;;;;;;7387248;19;19999;-76
2021/12/27 08:59:11;;;;;;;23.60;8.32;;;;;;;;;;7389099;19;20662;-76
2021/12/27 09:01:36;;;;;;;16.35;9.35;;;;;;;;;;7390021;19;20024;-76
2021/12/27 09:04:04;;;;;;;22.42;10.25;;;;;;;;;;7387353;19;19995;-76
2021/12/27 09:06:29;;;;;;;27.63;9.93;;;;;;;;;;7388854;19;20315;-77
2021/12/27 09:08:54;;;;;;;18.98;9.63;;;;;;;;;;7388343;19;20494;-76
2021/12/27 09:11:20;;;;;;;20.70;9.70;;;;;;;;;;7389500;19;19994;-77
2021/12/27 09:13:45;;;;;;;22.75;9.55;;;;;;;;;;7389212;19;19998;-77
2021/12/27 09:16:13;;;;;;;21.85;11.25;;;;;;;;;;7389609;19;20002;-77
2021/12/27 09:18:38;;;;;;;22.20;11.02;;;;;;;;;;7392928;19;19995;-76
2021/12/27 09:21:04;;;;;;;20.77;11.85;;;;;;;;;;7389401;19;19995;-76
2021/12/27 09:23:29;;;;;;;17.38;9.43;;;;;;;;;;7388674;19;19995;-76
2021/12/27 09:25:55;;;;;;;21.38;9.48;;;;;;;;;;7388583;19;20003;-77
2021/12/27 09:28:20;;;;;;;19.83;9.65;;;;;;;;;;7388420;19;19998;-76
2021/12/27 09:30:46;;;;;;;24.60;9.25;;;;;;;;;;7389218;19;20096;-76
2021/12/27 09:33:11;;;;;;;21.55;9.63;;;;;;;;;;7389173;19;19998;-77
2021/12/27 09:35:37;;;;;;;16.25;9.57;;;;;;;;;;7388238;19;20350;-76
2021/12/27 09:38:03;;;;;;;27.33;10.80;;;;;;;;;;7386469;19;19991;-77
2021/12/27 09:40:28;;;;;;;17.25;8.63;;;;;;;;;;7389145;19;20019;-76
2021/12/27 09:42:54;;;;;;;17.08;7.75;;;;;;;;;;7389090;19;20348;-76
2021/12/27 09:45:21;;;;;;;23.90;8.63;;;;;;;;;;7388309;19;20464;-77
2021/12/27 09:47:49;;;;;;;25.58;9.90;;;;;;;;;;7388686;19;20026;-76
2021/12/27 09:50:33;;;;;;;28.33;10.02;;;;;;;;;;7387847;19;20006;-76
2021/12/27 09:52:58;;;;;;;17.70;9.73;;;;;;;;;;7388559;19;20072;-77
2021/12/27 09:55:24;;;;;;;15.70;8.52;;;;;;;;;;7387501;19;20003;-76
2021/12/27 09:57:49;;;;;;;24.38;8.93;;;;;;;;;;7386562;19;20018;-77
2021/12/27 10:00:17;;;;;;;21.05;10.43;;;;;;;;;;7387783;19;19994;-77
2021/12/27 10:02:42;;;;;;;20.25;9.82;;;;;;;;;;7388209;19;20027;-76
2021/12/27 10:05:08;;;;;;;14.75;8.82;;;;;;;;;;7389413;19;19991;-76
2021/12/27 10:07:37;;;;;;;16.05;8.23;;;;;;;;;;7392060;19;19994;-76
2021/12/27 10:10:03;;;;;;;20.52;9.27;;;;;;;;;;7386770;19;20002;-76
2021/12/27 10:12:29;;;;;;;15.75;9.65;;;;;;;;;;7387954;19;19998;-76
2021/12/27 10:14:57;;;;;;;22.15;9.13;;;;;;;;;;7391206;19;20458;-76
2021/12/27 10:17:23;;;;;;;17.85;8.38;;;;;;;;;;7392700;19;20044;-77
2021/12/27 10:19:50;;;;;;;13.63;8.35;;;;;;;;;;7394020;19;20098;-77
2021/12/27 10:22:16;;;;;;;20.35;8.52;;;;;;;;;;7394899;19;19991;-77
2021/12/27 10:24:41;;;;;;;22.23;8.48;;;;;;;;;;7394287;19;20353;-77
2021/12/27 10:27:06;;;;;;;16.52;8.18;;;;;;;;;;7392455;19;20438;-77
2021/12/27 10:29:35;;;;;;;16.60;8.40;;;;;;;;;;7394189;19;20051;-76
2021/12/27 10:32:13;;;;;;;14.63;8.70;;;;;;;;;;7394678;19;20066;-76
2021/12/27 10:34:50;;;;;;;12.07;7.85;;;;;;;;;;7394443;19;20058;-76
2021/12/27 10:37:21;;;;;;;15.02;8.20;;;;;;;;;;7392862;19;19990;-78
2021/12/27 10:40:09;;;;;;;14.88;8.02;;;;;;;;;;7394539;19;19998;-78
2021/12/27 10:42:43;;;;;;;13.60;8.35;;;;;;;;;;7393571;19;20058;-76
2021/12/27 10:45:18;;;;;;;16.52;9.13;;;;;;;;;;7394002;19;20018;-76
2021/12/27 10:47:50;;;;;;;14.70;8.70;;;;;;;;;;7394175;19;19998;-77
2021/12/27 10:50:24;;;;;;;16.20;8.75;;;;;;;;;;7392621;19;19994;-75
2021/12/27 10:53:03;;;;;;;16.02;9.27;;;;;;;;;;7394327;19;19994;-77
2021/12/27 10:55:34;;;;;;;14.82;9.18;;;;;;;;;;7394761;19;20324;-77
2021/12/27 10:58:11;;;;;;;14.70;9.07;;;;;;;;;;7394160;19;20058;-78
2021/12/27 11:00:37;;;;;;;21.83;11.57;;;;;;;;;;7394261;19;20013;-75
2021/12/27 11:03:03;;;;;;;14.52;9.02;;;;;;;;;;7393452;19;20617;-77
2021/12/27 11:05:35;;;;;;;16.35;9.65;;;;;;;;;;7393161;19;20065;-75
2021/12/27 11:08:04;;;;;;;14.75;8.88;;;;;;;;;;7393756;19;19998;-78
2021/12/27 11:10:33;;;;;;;17.38;10.05;;;;;;;;;;7393724;19;20007;-75
2021/12/27 11:12:59;;;;;;;14.82;9.60;;;;;;;;;;7393131;19;19994;-76
2021/12/27 11:15:29;;;;;;;15.57;9.57;;;;;;;;;;7393146;19;20006;-75
2021/12/27 11:17:55;;;;;;;18.55;10.65;;;;;;;;;;7390799;19;20491;-77
2021/12/27 11:20:21;;;;;;;31.85;13.85;;;;;;;;;;7392749;19;19995;-76
2021/12/27 11:22:49;;;;;;;15.43;9.57;;;;;;;;;;7393232;19;19991;-75
2021/12/27 11:25:36;;;;;;;14.32;8.30;;;;;;;;;;7391376;19;20360;-76
2021/12/27 11:28:04;;;;;;;16.33;8.32;;;;;;;;;;7392947;19;20002;-78
2021/12/27 11:30:31;;;;;;;15.15;8.30;;;;;;;;;;7393333;19;20029;-76
2021/12/27 11:33:15;;;;;;;16.65;8.75;;;;;;;;;;7392360;19;19994;-75
2021/12/27 11:35:56;;;;;;;15.43;8.30;;;;;;;;;;7392903;19;20062;-76
2021/12/27 11:38:43;;;;;;;14.57;9.30;;;;;;;;;;7389205;19;20019;-75
2021/12/27 11:41:26;;;;;;;15.65;9.10;;;;;;;;;;7392261;19;20063;-75
2021/12/27 11:44:00;;;;;;;18.15;9.85;;;;;;;;;;7392720;19;19995;-75
2021/12/27 11:46:29;;;;;;;16.55;9.73;;;;;;;;;;7393296;19;20328;-75
2021/12/27 11:48:57;;;;;;;18.23;10.27;;;;;;;;;;7393876;19;19998;-76
2021/12/27 11:51:36;;;;;;;15.70;9.35;;;;;;;;;;7391970;19;20033;-75
2021/12/27 11:54:04;;;;;;;18.52;10.40;;;;;;;;;;7391207;19;20485;-76
2021/12/27 11:56:38;;;;;;;16.35;9.00;;;;;;;;;;7390803;19;20670;-76
2021/12/27 11:59:22;;;;;;;13.57;8.40;;;;;;;;;;7389394;19;19994;-75
2021/12/27 12:02:20;;;;;;;14.45;8.57;;;;;;;;;;7392439;19;20026;-75
2021/12/27 12:04:48;;;;;;;15.27;8.48;;;;;;;;;;7391558;19;19990;-77
2021/12/27 12:07:34;;;;;;;13.30;8.40;;;;;;;;;;7389648;19;20002;-78
2021/12/27 12:10:01;;;;;;;15.88;8.73;;;;;;;;;;7390019;19;19994;-78
2021/12/27 12:12:29;;;;;;;13.00;7.32;;;;;;;;;;7391317;19;20389;-75
2021/12/27 12:14:59;;;;;;;12.70;7.72;;;;;;;;;;7391224;19;20009;-75
2021/12/27 12:17:47;;;;;;;12.30;7.18;;;;;;;;;;7389489;19;20091;-77
2021/12/27 12:20:33;;;;;;;14.95;7.82;;;;;;;;;;7390810;19;20073;-75
2021/12/27 12:23:04;;;;;;;15.32;7.93;;;;;;;;;;7391474;19;20032;-76
2021/12/27 12:25:29;;;;;;;15.10;7.90;;;;;;;;;;7390570;19;20003;-76
2021/12/27 12:27:56;;;;;;;15.68;8.63;;;;;;;;;;7390647;19;19998;-75
2021/12/27 12:30:26;;;;;;;13.15;8.30;;;;;;;;;;7390389;19;20422;-75
2021/12/27 12:33:12;;;;;;;14.82;8.85;;;;;;;;;;7390441;19;19998;-76
2021/12/27 12:35:44;;;;;;;12.65;8.05;;;;;;;;;;7392634;19;20355;-76
2021/12/27 12:38:17;;;;;;;17.08;8.85;;;;;;;;;;7389671;19;20062;-76
2021/12/27 12:40:45;;;;;;;15.80;8.73;;;;;;;;;;7391478;19;19998;-76
2021/12/27 12:43:11;;;;;;;13.60;8.50;;;;;;;;;;7390202;19;20350;-76
2021/12/27 12:45:38;;;;;;;13.80;8.85;;;;;;;;;;7389634;19;20462;-75
2021/12/27 12:48:04;;;;;;;15.10;8.23;;;;;;;;;;7390010;19;19994;-75
2021/12/27 12:50:30;;;;;;;13.45;7.88;;;;;;;;;;7390377;19;19997;-76
2021/12/27 12:53:03;;;;;;;15.35;9.30;;;;;;;;;;7389988;19;19998;-75
2021/12/27 12:55:35;;;;;;;19.65;9.93;;;;;;;;;;7389473;19;20002;-76
2021/12/27 12:58:00;;;;;;;16.73;9.13;;;;;;;;;;7388014;19;20002;-77
2021/12/27 13:00:28;;;;;;;15.80;8.30;;;;;;;;;;7389357;19;20014;-75
2021/12/27 13:03:06;;;;;;;12.55;7.75;;;;;;;;;;7389666;19;19998;-75
2021/12/27 13:05:31;;;;;;;13.90;7.90;;;;;;;;;;7389552;19;20019;-76
2021/12/27 13:07:56;;;;;;;15.13;8.18;;;;;;;;;;7388534;19;20019;-78
2021/12/27 13:10:24;;;;;;;17.70;9.15;;;;;;;;;;7388354;19;20504;-77
2021/12/27 13:12:51;;;;;;;15.60;8.57;;;;;;;;;;7389280;19;20054;-78
2021/12/27 13:15:18;;;;;;;13.82;8.50;;;;;;;;;;7389160;19;20006;-77
2021/12/27 13:17:58;;;;;;;15.30;9.18;;;;;;;;;;7388435;19;19998;-77
2021/12/27 13:20:23;;;;;;;15.38;9.45;;;;;;;;;;7389004;19;19999;-78
2021/12/27 13:22:55;;;;;;;12.77;8.15;;;;;;;;;;7389348;19;20005;-76
2021/12/27 13:25:30;;;;;;;17.63;9.20;;;;;;;;;;7390767;19;20027;-77
2021/12/27 13:28:11;;;;;;;13.88;8.00;;;;;;;;;;7392036;19;20002;-77
2021/12/27 13:30:45;;;;;;;15.98;9.10;;;;;;;;;;7389031;19;19998;-77
2021/12/27 13:33:10;;;;;;;17.67;8.82;;;;;;;;;;7389233;19;20051;-77
2021/12/27 13:35:37;;;;;;;14.45;8.57;;;;;;;;;;7388308;19;19998;-77
2021/12/27 13:38:02;;;;;;;14.20;7.80;;;;;;;;;;7386288;19;20342;-77
2021/12/27 13:40:28;;;;;;;15.27;8.45;;;;;;;;;;7389526;19;20030;-77
2021/12/27 13:43:01;;;;;;;14.65;8.10;;;;;;;;;;7388761;19;20368;-78
2021/12/27 13:45:39;;;;;;;12.10;7.22;;;;;;;;;;7388464;19;20313;-76
2021/12/27 13:48:05;;;;;;;14.57;8.27;;;;;;;;;;7387739;19;19998;-77
2021/12/27 13:50:30;;;;;;;15.18;9.23;;;;;;;;;;7393462;19;20080;-76
2021/12/27 13:52:59;;;;;;;13.40;8.38;;;;;;;;;;7396334;19;19995;-76
2021/12/27 13:55:27;;;;;;;12.27;7.85;;;;;;;;;;7395114;19;20037;-77
2021/12/27 13:57:53;;;;;;;11.60;6.28;;;;;;;;;;7393785;19;19995;-77
2021/12/27 14:00:30;;;;;;;11.55;6.82;;;;;;;;;;7395209;19;19999;-76
2021/12/27 14:02:58;;;;;;;11.52;7.32;;;;;;;;;;7396429;19;20062;-76
2021/12/27 14:05:26;;;;;;;12.77;8.20;;;;;;;;;;7395327;19;19998;-77
2021/12/27 14:07:53;;;;;;;23.88;9.93;;;;;;;;;;7395558;19;20010;-76
2021/12/27 14:10:20;;;;;;;17.60;9.40;;;;;;;;;;7397960;19;20003;-76
2021/12/27 14:12:58;;;;;;;13.90;9.57;;;;;;;;;;7395496;19;20018;-76
2021/12/27 14:15:32;;;;;;;31.63;10.98;;;;;;;;;;7398100;19;20480;-79
2021/12/27 14:18:12;;;;;;;40.65;10.77;;;;;;;;;;7396348;19;20037;-76
2021/12/27 14:20:38;;;;;;;16.77;8.68;;;;;;;;;;7395388;19;20002;-76
2021/12/27 14:23:08;;;;;;;16.17;8.52;;;;;;;;;;7394519;19;20075;-76
2021/12/27 14:25:34;;;;;;;17.15;9.63;;;;;;;;;;7394820;19;19999;-77
2021/12/27 14:27:59;;;;;;;13.85;9.20;;;;;;;;;;7394684;19;20120;-77
2021/12/27 14:30:29;;;;;;;26.08;9.65;;;;;;;;;;7394132;19;20448;-78
2021/12/27 14:32:57;;;;;;;14.95;9.93;;;;;;;;;;7394770;19;20533;-77
2021/12/27 14:35:33;;;;;;;18.10;10.38;;;;;;;;;;7394211;19;20600;-76